Time;durP1;ratioP1;P1;durP2;ratioP2;P2;SDS_P1;SDS_P2;PMS_P1;PMS_P2;Temp;Humidity;BMP_temperature;BMP_pressure;BME280_temperature;BME280_humidity;BME280_pressure;Samples;Min_cycle;Max_cycle;Signal;HPM_P1;HPM_P2
2022/09/20 00:01:27;;;;;;;2.40;1.47;;;;;;;12.17;78.59;99851.97;1699050;83;21020;-73
2022/09/20 00:03:57;;;;;;;2.25;1.77;;;;;;;12.18;78.57;99856.27;1697361;83;21058;-73
2022/09/20 00:06:28;;;;;;;3.05;1.65;;;;;;;12.20;78.55;99859.02;1703167;82;21500;-74
2022/09/20 00:08:55;;;;;;;3.55;2.70;;;;;;;12.19;78.02;99856.05;1683600;84;21045;-75
2022/09/20 00:11:25;;;;;;;4.62;2.98;;;;;;;12.17;77.15;99856.78;1678503;84;20999;-73
2022/09/20 00:13:55;;;;;;;2.80;2.60;;;;;;;12.14;77.02;99854.52;1673094;82;20990;-71
2022/09/20 00:16:32;;;;;;;3.42;2.75;;;;;;;12.13;77.08;99857.40;1675595;84;21072;-72
2022/09/20 00:19:02;;;;;;;3.35;2.27;;;;;;;12.14;77.00;99847.84;1674725;85;21002;-76
2022/09/20 00:21:31;;;;;;;4.58;2.50;;;;;;;12.14;77.39;99849.18;1680368;82;21014;-73
2022/09/20 00:23:58;;;;;;;3.15;2.50;;;;;;;12.13;77.77;99850.23;1678958;85;21509;-72
2022/09/20 00:26:26;;;;;;;4.92;3.00;;;;;;;12.09;77.70;99843.64;1699830;83;21022;-72
2022/09/20 00:28:54;;;;;;;2.65;2.35;;;;;;;12.03;77.67;99846.63;1697496;83;21515;-73
2022/09/20 00:31:20;;;;;;;4.12;2.67;;;;;;;11.98;78.37;99844.29;1700802;84;21023;-72
2022/09/20 00:36:32;;;;;;;4.10;3.75;;;;;;;11.92;78.32;99841.94;1716455;83;21061;-73
2022/09/20 00:39:02;;;;;;;3.85;2.83;;;;;;;11.90;78.59;99840.00;1752923;80;21545;-74
2022/09/20 00:41:30;;;;;;;3.42;2.58;;;;;;;11.91;79.20;99840.84;1772537;80;21472;-77
2022/09/20 00:43:57;;;;;;;3.12;2.55;;;;;;;11.90;79.64;99836.52;1753261;81;21045;-74
2022/09/20 00:46:37;;;;;;;2.90;2.47;;;;;;;11.87;79.87;99839.06;1716649;81;21066;-72
2022/09/20 00:49:09;;;;;;;4.37;2.27;;;;;;;11.83;80.01;99838.66;1720513;82;21096;-76
2022/09/20 00:51:39;;;;;;;8.35;2.52;;;;;;;11.78;80.34;99840.31;1715581;82;21060;-72
2022/09/20 00:54:08;;;;;;;2.52;2.33;;;;;;;11.75;81.05;99838.86;1721993;82;21041;-73
2022/09/20 00:56:40;;;;;;;3.12;2.20;;;;;;;11.74;81.15;99844.44;1720900;81;21568;-73
2022/09/20 00:59:24;;;;;;;4.87;2.83;;;;;;;11.72;81.44;99842.48;1732672;81;20957;-73
2022/09/20 01:01:56;;;;;;;2.62;1.90;;;;;;;11.69;81.52;99846.38;1735915;81;20982;-73
2022/09/20 01:04:26;;;;;;;2.40;2.20;;;;;;;11.64;81.42;99840.83;1736189;81;21014;-71
2022/09/20 01:06:58;;;;;;;2.62;2.17;;;;;;;11.60;81.75;99839.61;1735762;81;21032;-74
2022/09/20 01:09:25;;;;;;;3.08;2.87;;;;;;;11.59;82.17;99837.45;1728241;81;21508;-72
2022/09/20 01:11:54;;;;;;;;;;;;;;;11.58;82.54;99842.48;1732952;81;21579;-72
2022/09/20 01:14:23;;;;;;;3.15;2.77;;;;;;;11.56;82.90;99837.05;1735234;81;20132;-72
2022/09/20 01:16:52;;;;;;;2.47;1.92;;;;;;;11.47;83.30;99838.61;1714127;82;21072;-73
2022/09/20 01:19:25;;;;;;;2.20;2.00;;;;;;;11.44;83.49;99845.68;1715527;82;21034;-73
2022/09/20 01:21:52;;;;;;;3.45;1.92;;;;;;;11.42;83.43;99850.92;1693793;83;21657;-71
2022/09/20 01:24:33;;;;;;;3.27;2.47;;;;;;;11.37;83.45;99848.86;1693681;83;21582;-72
2022/09/20 01:27:35;;;;;;;2.80;2.45;;;;;;;11.30;83.68;99850.20;1705614;81;21501;-71
2022/09/20 01:30:08;;;;;;;2.93;2.73;;;;;;;11.25;84.15;99849.18;1674198;82;21561;-73
2022/09/20 01:32:46;;;;;;;5.95;3.55;;;;;;;11.21;84.74;99846.09;1727978;81;21052;-74
2022/09/20 01:35:14;;;;;;;3.15;2.70;;;;;;;11.20;84.75;99840.44;1717399;82;20985;-72
2022/09/20 01:38:05;;;;;;;2.95;2.75;;;;;;;11.19;84.93;99844.15;1732817;81;21044;-72
2022/09/20 01:40:40;;;;;;;3.27;2.42;;;;;;;11.17;84.98;99841.36;1733031;81;21473;-71
2022/09/20 01:43:21;;;;;;;5.15;2.80;;;;;;;11.13;85.49;99854.28;1691890;84;21038;-72
2022/09/20 01:45:48;;;;;;;4.93;3.00;;;;;;;11.10;85.44;99848.84;1734639;81;21080;-71
2022/09/20 01:48:37;;;;;;;4.73;3.60;;;;;;;11.09;85.25;99842.38;1722843;81;21049;-72
2022/09/20 01:51:45;;;;;;;2.40;2.10;;;;;;;11.09;85.09;99841.89;1670115;84;21125;-71
2022/09/20 01:54:33;;;;;;;5.30;2.35;;;;;;;11.08;85.14;99840.23;1709755;82;21022;-72
2022/09/20 01:57:38;;;;;;;3.70;3.37;;;;;;;11.07;85.65;99845.24;1714700;82;21082;-72
2022/09/20 02:00:22;;;;;;;4.10;2.67;;;;;;;11.09;86.18;99844.55;1702141;82;21538;-76
2022/09/20 02:03:02;;;;;;;3.90;2.67;;;;;;;11.12;86.28;99837.17;1703411;83;21572;-72
2022/09/20 02:05:46;;;;;;;3.62;2.85;;;;;;;11.14;86.48;99835.12;1713426;82;21077;-72
2022/09/20 02:08:51;;;;;;;2.37;2.15;;;;;;;11.15;86.69;99832.25;1659406;84;21067;-72
2022/09/20 02:11:22;;;;;;;3.77;3.10;;;;;;;11.15;87.46;99829.58;1670208;84;21150;-73
2022/09/20 02:14:14;;;;;;;3.80;3.10;;;;;;;11.13;87.17;99833.46;1714955;83;20982;-72
2022/09/20 02:16:54;;;;;;;7.00;3.17;;;;;;;11.10;86.90;99838.18;1727181;81;20962;-72
2022/09/20 02:19:50;;;;;;;3.87;2.57;;;;;;;11.07;86.91;99845.24;1694354;83;21037;-72
2022/09/20 02:22:48;;;;;;;2.90;2.70;;;;;;;11.06;87.18;99843.62;1722913;81;20999;-72
2022/09/20 02:25:23;;;;;;;3.63;3.33;;;;;;;11.06;87.53;99848.95;1708670;81;21033;-73
2022/09/20 02:28:21;;;;;;;5.95;3.25;;;;;;;11.07;87.45;99850.58;1723213;82;21466;-73
2022/09/20 02:31:14;;;;;;;3.25;2.80;;;;;;;11.07;87.64;99853.25;1721730;82;21030;-75
2022/09/20 02:33:58;;;;;;;3.20;3.00;;;;;;;11.05;87.95;99851.30;1686801;83;20988;-72
2022/09/20 02:36:47;;;;;;;3.07;2.77;;;;;;;11.04;88.25;99843.52;1663875;84;21053;-72
2022/09/20 02:39:21;;;;;;;5.60;3.50;;;;;;;11.00;88.15;99845.77;1701547;83;21052;-72
2022/09/20 02:42:14;;;;;;;4.85;3.27;;;;;;;10.97;88.33;99842.17;1696550;83;21032;-73
2022/09/20 02:45:00;;;;;;;2.77;2.58;;;;;;;10.94;88.83;99843.89;1730067;81;20989;-73
2022/09/20 02:47:34;;;;;;;3.85;3.17;;;;;;;10.89;89.66;99843.19;1726681;81;21028;-73
2022/09/20 02:50:26;;;;;;;7.10;3.40;;;;;;;10.89;90.25;99842.38;1671374;83;21031;-76
2022/09/20 02:53:38;;;;;;;4.80;2.80;;;;;;;10.88;90.16;99837.53;1727999;81;21032;-74
2022/09/20 02:56:25;;;;;;;7.80;2.93;;;;;;;10.83;90.40;99849.33;1705009;81;21182;-72
2022/09/20 02:59:12;;;;;;;6.95;3.70;;;;;;;10.79;90.82;99849.92;1718115;81;21473;-72
2022/09/20 03:02:27;;;;;;;3.87;3.52;;;;;;;10.75;90.94;99856.16;1726754;81;21540;-73
2022/09/20 03:05:14;;;;;;;4.30;3.87;;;;;;;10.70;91.01;99855.45;1723790;81;21040;-72
2022/09/20 03:08:19;;;;;;;5.17;3.37;;;;;;;10.65;91.39;99853.08;1660507;84;21063;-73
2022/09/20 03:10:57;;;;;;;5.65;3.98;;;;;;;10.66;91.84;99853.37;1694853;83;21101;-75
2022/09/20 03:13:51;;;;;;;4.53;3.83;;;;;;;10.63;91.78;99850.60;1673961;84;20982;-73
2022/09/20 03:16:47;;;;;;;5.50;3.40;;;;;;;10.60;91.75;99845.66;1706284;82;21029;-71
2022/09/20 03:19:39;;;;;;;3.77;3.27;;;;;;;10.57;92.16;99847.41;1705538;82;21033;-73
2022/09/20 03:22:16;;;;;;;4.83;3.93;;;;;;;10.50;92.26;99848.71;1710843;82;21551;-72
2022/09/20 03:25:35;;;;;;;9.33;3.50;;;;;;;10.46;92.33;99858.65;1719495;82;20967;-74
2022/09/20 03:28:29;;;;;;;3.45;3.20;;;;;;;10.43;92.62;99865.70;1726925;82;21017;-72
2022/09/20 03:31:04;;;;;;;5.63;5.13;;;;;;;10.42;92.91;99862.73;1711068;82;21174;-72
2022/09/20 03:34:00;;;;;;;4.13;3.83;;;;;;;10.41;93.11;99867.73;1738884;80;21111;-72
2022/09/20 03:37:00;;;;;;;5.17;4.10;;;;;;;10.45;93.12;99871.16;1689453;82;21043;-73
2022/09/20 03:40:20;;;;;;;4.87;4.47;;;;;;;10.51;92.97;99868.20;1702011;83;20992;-73
2022/09/20 03:42:53;;;;;;;5.92;4.80;;;;;;;10.52;92.98;99875.16;1717983;83;20977;-73
2022/09/20 03:45:57;;;;;;;6.15;3.27;;;;;;;10.56;92.92;99879.07;1705800;83;21465;-73
2022/09/20 03:48:50;;;;;;;4.87;3.73;;;;;;;10.61;93.16;99884.63;1720999;82;21675;-74
2022/09/20 03:51:48;;;;;;;3.85;3.25;;;;;;;10.66;93.29;99882.20;1742798;81;21640;-73
2022/09/20 03:54:35;;;;;;;4.62;3.65;;;;;;;10.71;93.43;99887.73;1706829;82;21530;-73
2022/09/20 03:57:33;;;;;;;4.95;4.22;;;;;;;10.75;93.11;99888.67;1690953;83;21013;-77
2022/09/20 04:00:22;;;;;;;2.87;2.67;;;;;;;10.74;92.91;99885.68;1723782;82;21057;-73
2022/09/20 04:03:15;;;;;;;6.55;4.25;;;;;;;10.71;92.59;99883.73;1740296;82;21008;-72
2022/09/20 04:06:22;;;;;;;5.20;4.70;;;;;;;10.71;92.78;99889.06;1704647;82;21022;-71
2022/09/20 04:09:33;;;;;;;5.73;4.30;;;;;;;10.70;92.83;99892.77;1683302;82;21122;-73
2022/09/20 04:12:26;;;;;;;6.23;4.80;;;;;;;10.69;93.13;99891.11;1679625;84;21533;-72
2022/09/20 04:15:07;;;;;;;9.57;4.83;;;;;;;10.71;93.70;99891.72;1682853;84;21026;-75
2022/09/20 04:17:50;;;;;;;9.13;5.20;;;;;;;10.70;93.67;99882.62;1711124;83;21081;-73
2022/09/20 04:20:38;;;;;;;5.80;4.67;;;;;;;10.68;93.50;99885.97;1674736;85;21061;-73
2022/09/20 04:23:42;;;;;;;6.87;5.00;;;;;;;10.65;93.58;99891.20;1652310;85;21483;-73
2022/09/20 04:26:20;;;;;;;7.13;5.50;;;;;;;10.62;93.85;99890.77;1697023;84;21542;-73
2022/09/20 04:29:13;;;;;;;7.05;4.92;;;;;;;10.66;95.72;99889.34;1739278;82;21046;-73
2022/09/20 04:31:49;;;;;;;6.60;4.57;;;;;;;10.73;96.02;99890.20;1729148;82;21073;-74
2022/09/20 04:34:21;;;;;;;5.60;4.97;;;;;;;10.76;95.21;99893.81;1731990;82;21061;-78
2022/09/20 04:36:58;;;;;;;7.53;5.23;;;;;;;10.80;94.80;99895.56;1739516;82;21600;-76
2022/09/20 04:39:44;;;;;;;4.58;4.17;;;;;;;10.82;95.22;99896.19;1733387;82;20987;-75
2022/09/20 04:42:54;;;;;;;9.35;3.90;;;;;;;10.85;94.19;99893.94;1736962;82;21508;-76
2022/09/20 04:45:50;;;;;;;4.92;4.42;;;;;;;10.83;93.50;99899.98;1741762;82;21073;-74
2022/09/20 04:48:22;;;;;;;8.90;4.17;;;;;;;10.77;92.98;99904.77;1738408;82;21501;-76
2022/09/20 04:51:34;;;;;;;5.47;4.63;;;;;;;10.74;93.00;99907.85;1739094;82;21077;-78
2022/09/20 04:54:40;;;;;;;7.65;5.53;;;;;;;10.73;93.00;99910.71;1738962;82;21090;-84
2022/09/20 04:57:33;;;;;;;8.60;6.30;;;;;;;10.71;93.09;99907.72;1738354;82;20994;-83
2022/09/20 05:00:13;;;;;;;9.60;6.43;;;;;;;10.71;93.09;99905.05;1665047;85;21074;-85
2022/09/20 05:03:28;;;;;;;6.97;6.13;;;;;;;10.73;93.17;99903.53;1724133;82;21044;-87
2022/09/20 05:06:08;;;;;;;9.30;6.60;;;;;;;10.80;93.08;99908.89;1738780;82;20983;-88
2022/09/20 05:08:47;;;;;;;5.50;4.85;;;;;;;10.86;92.84;99910.75;1739798;82;21025;-84
2022/09/20 05:11:29;;;;;;;6.90;5.77;;;;;;;10.87;92.57;99909.75;1742526;82;21121;-85
2022/09/20 05:14:35;;;;;;;8.73;6.28;;;;;;;10.89;92.53;99911.17;1730166;82;21102;-85
2022/09/20 05:17:47;;;;;;;7.67;6.15;;;;;;;10.93;92.41;99910.78;1746963;81;20996;-88
2022/09/20 05:20:48;;;;;;;18.43;5.77;;;;;;;10.93;92.32;99908.13;1740111;81;21674;-89
2022/09/20 05:23:52;;;;;;;8.03;6.10;;;;;;;10.92;92.50;99907.27;1731119;82;21136;-91
2022/09/20 05:26:45;;;;;;;10.70;7.53;;;;;;;10.93;92.70;99908.13;1738294;82;21026;-88
2022/09/20 05:29:54;;;;;;;8.58;6.85;;;;;;;10.97;92.76;99907.50;1731060;82;21026;-88
2022/09/20 05:32:28;;;;;;;6.75;6.15;;;;;;;11.05;92.82;99903.83;1740769;82;21057;-90
2022/09/20 05:35:22;;;;;;;7.50;5.40;;;;;;;11.14;92.71;99904.47;1735354;82;21113;-88
2022/09/20 05:38:02;;;;;;;8.55;6.60;;;;;;;11.18;92.55;99896.36;1734959;82;21025;-87
2022/09/20 05:41:12;;;;;;;8.80;5.70;;;;;;;11.20;92.43;99900.98;1726171;82;21170;-86
2022/09/20 05:43:49;;;;;;;4.97;3.83;;;;;;;11.20;92.62;99895.64;1738885;82;21030;-87
2022/09/20 05:46:37;;;;;;;4.08;3.77;;;;;;;11.23;92.67;99908.59;1720946;82;22264;-89
2022/09/20 05:49:21;;;;;;;4.35;3.98;;;;;;;11.23;91.89;99903.25;1739518;82;20982;-87
2022/09/20 05:51:58;;;;;;;4.30;3.17;;;;;;;11.20;91.65;99896.98;1722253;82;21082;-86
2022/09/20 05:54:48;;;;;;;4.92;3.77;;;;;;;11.18;91.32;99896.36;1729180;82;21074;-85
2022/09/20 05:57:43;;;;;;;3.60;3.30;;;;;;;11.15;91.35;99900.76;1739742;80;20986;-86
2022/09/20 06:00:19;;;;;;;2.60;2.40;;;;;;;11.08;91.60;99904.77;1739884;82;21101;-85
2022/09/20 06:03:01;;;;;;;3.62;3.08;;;;;;;11.03;91.71;99905.36;1740519;82;21042;-86
2022/09/20 06:06:08;;;;;;;3.27;3.00;;;;;;;11.01;92.07;99900.73;1738332;82;21037;-84
2022/09/20 06:09:20;;;;;;;2.65;2.55;;;;;;;10.98;92.12;99902.49;1733362;82;21518;-84
2022/09/20 06:12:06;;;;;;;3.45;3.10;;;;;;;10.96;92.64;99901.84;1740490;82;21106;-85
2022/09/20 06:15:15;;;;;;;3.42;3.12;;;;;;;10.93;93.02;99900.94;1730316;82;21018;-84
2022/09/20 06:18:01;;;;;;;5.17;3.12;;;;;;;10.95;93.61;99898.07;1742430;80;21503;-86
2022/09/20 06:20:49;;;;;;;5.90;4.12;;;;;;;11.05;93.30;99902.49;1724457;81;21010;-88
2022/09/20 06:23:17;;;;;;;3.63;3.27;;;;;;;11.14;92.91;99908.47;1736326;82;21043;-89
2022/09/20 06:26:09;;;;;;;4.90;3.27;;;;;;;11.19;91.99;99904.66;1709518;82;21512;-87
2022/09/20 06:28:50;;;;;;;3.05;1.87;;;;;;;11.17;91.58;99909.37;1728111;82;21506;-89
2022/09/20 06:31:17;;;;;;;2.05;1.85;;;;;;;11.12;91.53;99909.19;1711080;82;21017;-69
2022/09/20 06:33:58;;;;;;;;;;;;;;;11.04;91.61;99905.67;1715293;82;21643;-73
2022/09/20 06:42:22;;;;;;;2.40;2.30;;;;;;;11.08;92.04;99909.58;1717702;81;21488;-85
2022/09/20 06:44:48;;;;;;;5.22;2.87;;;;;;;10.85;91.57;99863.28;1703125;83;21061;-80
2022/09/20 06:47:15;;;;;;;3.65;3.30;;;;;;;11.15;91.43;99910.09;1743788;81;20986;-79
2022/09/20 06:49:41;;;;;;;4.83;2.95;;;;;;;10.67;91.48;99828.37;1731350;82;21526;-78
2022/09/20 06:52:14;;;;;;;3.87;2.70;;;;;;;11.14;91.79;99905.28;1731714;81;21110;-79
2022/09/20 06:54:45;;;;;;;3.62;2.85;;;;;;;11.14;91.91;99909.80;1703024;82;21070;-79
2022/09/20 06:57:15;;;;;;;3.42;3.12;;;;;;;11.14;92.00;99905.80;1741609;80;20966;-78
2022/09/20 06:59:41;;;;;;;4.65;3.50;;;;;;;11.14;92.21;99901.28;1692075;83;20986;-78
2022/09/20 07:02:08;;;;;;;4.03;3.50;;;;;;;11.17;92.11;99894.70;1727703;81;20978;-77
2022/09/20 07:04:37;;;;;;;4.60;3.67;;;;;;;11.19;92.88;99891.32;1717992;81;21045;-79
2022/09/20 07:07:06;;;;;;;3.70;3.40;;;;;;;11.24;93.51;99883.54;1723883;82;20992;-76
2022/09/20 07:09:32;;;;;;;5.65;4.10;;;;;;;11.20;94.28;99883.64;1724140;83;21004;-78
2022/09/20 07:11:58;;;;;;;6.67;3.35;;;;;;;11.14;95.20;99883.12;1723113;82;21020;-76
2022/09/20 07:14:26;;;;;;;6.37;5.05;;;;;;;11.06;95.37;99893.48;1710596;82;20950;-78
2022/09/20 07:16:53;;;;;;;7.22;4.67;;;;;;;11.02;96.26;99893.06;1731510;81;21508;-76
2022/09/20 07:19:21;;;;;;;4.80;4.37;;;;;;;10.98;96.86;99893.16;1721962;82;21006;-77
2022/09/20 07:21:48;;;;;;;6.90;5.12;;;;;;;10.96;96.54;99895.70;1718464;82;21017;-78
2022/09/20 07:24:14;;;;;;;5.03;4.62;;;;;;;10.93;96.85;99896.94;1714104;82;21108;-77
2022/09/20 07:27:03;;;;;;;8.63;5.67;;;;;;;10.92;97.04;99903.27;1716386;82;21020;-77
2022/09/20 07:29:30;;;;;;;7.42;5.83;;;;;;;10.90;97.76;99911.98;1726926;80;21478;-77
2022/09/20 07:31:57;;;;;;;5.47;5.00;;;;;;;10.92;98.20;99904.61;1740602;82;21114;-76
2022/09/20 07:34:24;;;;;;;6.28;5.53;;;;;;;11.01;98.51;99900.73;1740557;80;21492;-74
2022/09/20 07:36:51;;;;;;;7.53;5.33;;;;;;;11.15;98.87;99894.09;1739169;80;21014;-79
2022/09/20 07:39:17;;;;;;;6.33;5.00;;;;;;;11.31;99.61;99892.38;1711744;83;21068;-80
2022/09/20 07:41:47;;;;;;;7.20;5.42;;;;;;;11.47;99.66;99895.98;1722248;82;20974;-78
2022/09/20 07:44:24;;;;;;;7.87;5.42;;;;;;;11.63;99.35;99889.41;1719931;82;21030;-80
2022/09/20 07:46:53;;;;;;;5.22;4.42;;;;;;;11.80;98.98;99891.66;1719931;82;21018;-77
2022/09/20 07:49:21;;;;;;;5.72;5.22;;;;;;;11.96;97.88;99894.42;1724878;82;21588;-77
2022/09/20 07:51:49;;;;;;;4.95;4.15;;;;;;;12.08;97.44;99899.45;1743692;82;21118;-78
2022/09/20 07:54:15;;;;;;;9.48;7.40;;;;;;;12.20;96.00;99891.08;1724784;80;21131;-78
2022/09/20 07:56:43;;;;;;;9.23;8.23;;;;;;;12.27;95.43;99888.41;1745294;81;20960;-78
2022/09/20 07:59:10;;;;;;;19.27;17.17;;;;;;;12.24;94.08;99891.48;1709145;82;21607;-78
2022/09/20 08:01:37;;;;;;;14.55;11.75;;;;;;;12.17;94.27;99902.20;1704881;80;21572;-78
2022/09/20 08:04:08;;;;;;;;;;;;;;;12.19;94.93;99896.13;1726448;81;21005;-80
2022/09/20 08:06:42;;;;;;;6.62;4.80;;;;;;;12.19;94.77;99897.47;1751496;80;20170;-79
2022/09/20 08:09:10;;;;;;;5.62;4.15;;;;;;;12.13;95.00;99894.31;1769511;81;21013;-78
2022/09/20 08:11:38;;;;;;;3.30;3.10;;;;;;;12.13;95.69;99891.64;1749063;81;20999;-79
2022/09/20 08:14:05;;;;;;;4.45;3.77;;;;;;;12.13;95.58;99891.64;1752468;81;21025;-80
2022/09/20 08:16:43;;;;;;;5.80;3.87;;;;;;;12.18;95.95;99893.67;1749762;81;21033;-79
2022/09/20 08:19:17;;;;;;;6.78;4.72;;;;;;;12.22;95.00;99901.56;1772954;80;21530;-80
2022/09/20 08:21:44;;;;;;;6.45;5.30;;;;;;;12.20;94.89;99905.78;1727773;82;21089;-79
2022/09/20 08:24:11;;;;;;;5.25;3.70;;;;;;;12.23;94.97;99909.37;1749706;81;21289;-78
2022/09/20 08:26:37;;;;;;;7.95;3.52;;;;;;;12.24;94.59;99911.53;1750478;81;21008;-79
2022/09/20 08:29:14;;;;;;;3.72;2.92;;;;;;;12.25;94.79;99912.66;1746100;82;21554;-80
2022/09/20 08:31:41;;;;;;;3.15;2.85;;;;;;;12.29;94.32;99909.05;1739559;82;21086;-79
2022/09/20 08:34:10;;;;;;;4.62;2.77;;;;;;;12.33;93.29;99906.78;1757038;80;21046;-79
2022/09/20 08:36:41;;;;;;;6.17;3.52;;;;;;;12.34;93.05;99903.91;1746926;81;21032;-78
2022/09/20 08:39:08;;;;;;;3.87;3.58;;;;;;;12.41;92.84;99904.72;1753992;80;21018;-80
2022/09/20 08:41:55;;;;;;;3.40;3.10;;;;;;;12.46;92.51;99898.20;1755280;81;21030;-81
2022/09/20 08:44:34;;;;;;;2.83;2.55;;;;;;;12.55;91.95;99893.97;1722736;82;21042;-77
2022/09/20 08:47:59;;;;;;;3.77;3.00;;;;;;;12.69;91.97;99896.06;1783717;79;22617;-73
2022/09/20 08:50:27;;;;;;;5.78;3.33;;;;;;;12.67;91.27;99894.92;1704140;80;21077;-74
2022/09/20 08:52:57;;;;;;;3.95;2.52;;;;;;;12.73;91.21;99887.38;1696615;83;21072;-74
2022/09/20 08:55:30;;;;;;;3.65;2.87;;;;;;;12.80;90.67;99890.03;1699671;83;21496;-76
2022/09/20 08:57:59;;;;;;;4.90;2.52;;;;;;;12.84;90.50;99887.23;1689743;82;21035;-74
2022/09/20 09:00:32;;;;;;;3.15;2.85;;;;;;;12.83;90.81;99897.12;1687821;83;21047;-74
2022/09/20 09:03:03;;;;;;;6.90;3.58;;;;;;;12.85;91.93;99892.38;1700390;83;21104;-72
2022/09/20 09:05:41;;;;;;;3.58;3.27;;;;;;;12.88;92.09;99892.97;1699613;83;21591;-75
2022/09/20 09:08:18;;;;;;;7.03;4.12;;;;;;;12.93;91.40;99897.17;1693249;83;21543;-74
2022/09/20 09:11:07;;;;;;;5.42;3.77;;;;;;;12.94;91.18;99899.64;1688877;83;21581;-74
2022/09/20 09:14:46;;;;;;;7.67;3.27;;;;;;;12.98;90.67;99894.69;1700728;83;21154;-75
2022/09/20 09:16:34;;;;;;;4.22;3.75;;;;;;;13.04;88.71;99899.16;1700267;83;20997;-73
2022/09/20 09:19:29;;;;;;;;;;;;;;;13.08;87.41;99895.02;1703634;83;21076;-74
2022/09/20 09:22:01;;;;;;;4.62;3.52;;;;;;;13.12;86.97;99896.75;1694238;83;20103;-74
2022/09/20 09:24:30;;;;;;;7.72;4.35;;;;;;;13.08;85.72;99891.53;1688766;83;21031;-72
2022/09/20 09:27:18;;;;;;;3.77;3.45;;;;;;;13.11;85.32;99889.25;1698716;84;21122;-73
2022/09/20 09:29:54;;;;;;;6.17;3.75;;;;;;;13.16;85.56;99887.25;1702409;83;21012;-74
2022/09/20 09:32:31;;;;;;;2.70;2.50;;;;;;;13.23;85.37;99892.05;1721218;83;20989;-72
2022/09/20 09:35:29;;;;;;;6.28;3.83;;;;;;;13.24;84.36;99892.33;1719798;83;21482;-73
2022/09/20 09:38:01;;;;;;;6.25;2.75;;;;;;;13.22;84.56;99894.41;1692302;83;21051;-77
2022/09/20 09:40:31;;;;;;;3.58;2.87;;;;;;;13.16;84.97;99893.41;1697512;83;21533;-72
2022/09/20 09:43:01;;;;;;;3.47;2.33;;;;;;;13.13;83.90;99894.36;1676558;84;21084;-74
2022/09/20 09:45:37;;;;;;;6.12;3.12;;;;;;;13.08;82.61;99892.34;1676359;84;21504;-73
2022/09/20 09:48:02;;;;;;;4.00;2.12;;;;;;;13.03;82.71;99893.00;1661887;84;21108;-73
2022/09/20 09:50:32;;;;;;;1.57;1.47;;;;;;;13.03;82.85;99890.83;1658262;84;21077;-74
2022/09/20 09:53:06;;;;;;;1.85;1.32;;;;;;;13.05;82.90;99886.92;1661985;83;20998;-71
2022/09/20 09:55:42;;;;;;;1.22;1.12;;;;;;;13.07;83.08;99887.20;1685346;83;21005;-74
2022/09/20 09:58:38;;;;;;;3.80;1.92;;;;;;;13.08;83.14;99884.31;1719623;82;21556;-73
2022/09/20 10:01:09;;;;;;;2.10;1.65;;;;;;;13.01;83.45;99883.01;1724064;82;21073;-72
2022/09/20 10:03:51;;;;;;;3.10;1.70;;;;;;;12.89;83.79;99882.59;1729858;82;21052;-73
2022/09/20 10:06:28;;;;;;;1.67;1.57;;;;;;;12.80;84.08;99879.34;1724139;82;21157;-73
2022/09/20 10:09:15;;;;;;;;;;;;;;;12.73;85.65;99881.22;1689302;83;21038;-71
2022/09/20 10:12:05;;;;;;;0.40;0.30;;;;;;;12.69;86.63;99884.02;1665537;85;20434;-73
2022/09/20 10:14:50;;;;;;;0.82;0.30;;;;;;;12.65;86.47;99887.11;1683086;84;21037;-71
2022/09/20 10:17:57;;;;;;;1.35;0.50;;;;;;;12.66;84.06;99874.59;1651936;85;21045;-70
2022/09/20 10:20:46;;;;;;;1.15;0.72;;;;;;;12.58;85.82;99880.16;1623577;86;21113;-71
2022/09/20 10:23:46;;;;;;;1.80;0.70;;;;;;;12.45;85.76;99883.70;1658903;85;21009;-70
2022/09/20 10:26:42;;;;;;;0.78;0.42;;;;;;;12.44;85.62;99882.08;1624383;86;21109;-73
2022/09/20 10:29:26;;;;;;;1.00;0.70;;;;;;;12.43;85.68;99881.76;1610359;85;21367;-72
2022/09/20 10:32:40;;;;;;;1.32;0.95;;;;;;;12.42;86.48;99874.78;1595856;88;21555;-72
2022/09/20 10:35:35;;;;;;;1.90;0.40;;;;;;;12.41;86.81;99870.45;1593458;88;21173;-73
2022/09/20 10:38:22;;;;;;;0.37;0.37;;;;;;;12.35;87.39;99861.44;1630521;86;20994;-71
2022/09/20 10:44:57;;;;;;;0.75;0.55;;;;;;;12.20;87.22;99860.36;1659601;84;21025;-71
2022/09/20 10:47:32;;;;;;;0.82;0.82;;;;;;;12.16;87.90;99858.33;1660477;84;21314;-74
2022/09/20 10:50:28;;;;;;;0.53;0.30;;;;;;;12.12;88.17;99849.91;1664945;84;21110;-72
2022/09/20 10:53:08;;;;;;;2.47;0.65;;;;;;;12.10;88.41;99839.95;1643740;85;21089;-74
2022/09/20 10:56:24;;;;;;;2.20;0.70;;;;;;;12.07;88.67;99847.04;1648698;86;21577;-73
2022/09/20 10:59:16;;;;;;;0.82;0.55;;;;;;;12.02;88.81;99840.19;1638029;85;21073;-70
2022/09/20 11:02:15;;;;;;;0.60;0.40;;;;;;;11.93;89.31;99834.25;1633306;86;21046;-72
2022/09/20 11:05:02;;;;;;;0.68;0.45;;;;;;;11.88;90.39;99834.86;1612168;87;21051;-71
2022/09/20 11:07:42;;;;;;;2.20;0.40;;;;;;;11.87;90.91;99832.39;1599655;88;21074;-72
2022/09/20 11:10:27;;;;;;;1.20;1.10;;;;;;;11.90;91.56;99831.17;1619309;88;21549;-70
2022/09/20 11:13:01;;;;;;;0.98;0.78;;;;;;;11.88;92.04;99829.52;1627853;88;21018;-72
2022/09/20 11:15:50;;;;;;;1.20;0.82;;;;;;;11.91;92.72;99829.63;1652035;87;21144;-70
2022/09/20 11:18:31;;;;;;;1.55;1.45;;;;;;;11.91;93.18;99823.48;1625188;86;21048;-70
2022/09/20 11:21:03;;;;;;;1.52;1.00;;;;;;;11.91;93.66;99826.15;1627010;86;22098;-72
2022/09/20 11:23:55;;;;;;;1.10;0.93;;;;;;;11.87;94.22;99825.19;1653681;85;21010;-71
2022/09/20 11:26:27;;;;;;;3.90;1.13;;;;;;;11.86;94.03;99824.87;1569115;82;21115;-70
2022/09/20 11:28:59;;;;;;;2.55;1.10;;;;;;;11.86;94.48;99821.39;1616315;86;21077;-71
2022/09/20 11:31:45;;;;;;;3.92;2.05;;;;;;;11.85;95.22;99825.11;1609862;87;21077;-73
2022/09/20 11:34:31;;;;;;;1.92;1.77;;;;;;;11.82;95.63;99823.66;1645356;86;21061;-72
2022/09/20 11:37:01;;;;;;;1.40;1.10;;;;;;;11.81;95.97;99824.70;1610057;86;21068;-72
2022/09/20 11:39:51;;;;;;;1.52;1.42;;;;;;;11.79;96.36;99835.27;1714255;83;21007;-72
2022/09/20 11:42:21;;;;;;;1.90;1.40;;;;;;;11.76;96.51;99825.83;1691595;83;21016;-71
2022/09/20 11:44:48;;;;;;;1.25;1.15;;;;;;;11.74;96.60;99841.24;1691202;84;21104;-70
2022/09/20 11:47:26;;;;;;;3.12;1.30;;;;;;;11.76;96.59;99841.04;1689866;85;21059;-72
2022/09/20 11:50:31;;;;;;;4.97;1.65;;;;;;;11.74;96.78;99834.56;1671037;83;20997;-71
2022/09/20 11:53:45;;;;;;;1.45;1.12;;;;;;;11.72;97.00;99840.63;1687657;83;21073;-73
2022/09/20 11:56:25;;;;;;;1.45;1.10;;;;;;;11.67;97.06;99836.42;1642621;85;21528;-71
2022/09/20 11:59:01;;;;;;;1.30;1.20;;;;;;;11.63;97.22;99833.86;1644347;85;21046;-71
2022/09/20 12:01:34;;;;;;;1.52;1.10;;;;;;;11.64;97.64;99826.14;1624933;87;21536;-72
2022/09/20 12:04:23;;;;;;;1.55;1.27;;;;;;;11.64;97.77;99828.33;1582143;88;21095;-71
2022/09/20 12:07:26;;;;;;;1.25;1.10;;;;;;;11.64;97.64;99826.98;1617139;87;21077;-71
2022/09/20 12:09:59;;;;;;;1.60;1.10;;;;;;;11.65;97.81;99831.28;1610314;87;21130;-70
2022/09/20 12:12:45;;;;;;;4.30;1.57;;;;;;;11.64;97.73;99826.14;1624419;86;21730;-71
2022/09/20 12:15:37;;;;;;;0.82;0.80;;;;;;;11.64;97.78;99820.80;1617188;87;21017;-72
2022/09/20 12:18:27;;;;;;;0.88;0.88;;;;;;;11.65;97.75;99823.80;1607237;86;21561;-72
2022/09/20 12:21:01;;;;;;;0.85;0.85;;;;;;;11.66;97.80;99819.59;1613826;87;21152;-72
2022/09/20 12:23:57;;;;;;;1.57;1.47;;;;;;;11.67;97.94;99824.41;1579412;88;21351;-72
2022/09/20 12:26:38;;;;;;;2.45;1.67;;;;;;;11.70;97.80;99813.32;1639687;86;21030;-72
2022/09/20 12:29:28;;;;;;;1.07;0.93;;;;;;;11.75;98.08;99798.81;1615364;88;21080;-72
2022/09/20 12:32:01;;;;;;;1.75;1.65;;;;;;;11.84;98.25;99806.91;1624994;86;21015;-72
2022/09/20 12:34:35;;;;;;;2.67;0.93;;;;;;;11.92;98.82;99823.77;1632699;86;21214;-72
2022/09/20 12:37:09;;;;;;;2.05;1.07;;;;;;;11.93;98.63;99816.08;1641469;86;21076;-71
2022/09/20 12:39:38;;;;;;;3.15;1.30;;;;;;;11.99;98.49;99814.70;1672595;84;21125;-72
2022/09/20 12:42:14;;;;;;;2.72;1.32;;;;;;;12.03;97.92;99808.42;1635396;85;21070;-71
2022/09/20 12:44:52;;;;;;;2.15;0.95;;;;;;;12.09;97.66;99800.90;1655404;86;21059;-72
2022/09/20 12:47:29;;;;;;;2.27;1.10;;;;;;;12.13;96.95;99802.14;1654905;86;21093;-72
2022/09/20 12:52:55;;;;;;;2.10;2.00;;;;;;;12.21;97.13;99803.23;1656425;85;20138;-71
2022/09/20 12:55:32;;;;;;;2.27;1.07;;;;;;;12.21;97.76;99805.90;1655042;85;21099;-72
2022/09/20 12:58:13;;;;;;;1.50;0.90;;;;;;;12.28;97.39;99793.83;1655710;86;21041;-71